18°C Temp
7°C Dewpoint
% Humidity
Temperature
8 KM/H
5 MPH
4 KTS
350°
Due North

Wind Speed
Clear
Conditions
Pressure 1015.92 (hPa) - 30 (in)
Visibility 6.2 (mi) - 10.0 (km)

Current Conditions
YWLM
Location 18(km)
Metar :YWLM 210200Z AUTO 35004KT 9999 // NCD 18/07 Q1016
Sun 21st July 13:00 pm

Airport
  Metar Aviation API Data Provided by https://www.checkwx.com/ PHP scripts by weather34.com ©2019